createdAt,value
2023-05-13T00:00:05.697Z,13.10
2023-05-13T00:04:15.059Z,13.10
2023-05-13T00:08:24.435Z,13.10
2023-05-13T00:12:35.525Z,13.10
2023-05-13T00:16:45.171Z,13.10
2023-05-13T00:20:54.685Z,13.00
2023-05-13T00:25:04.502Z,13.00
2023-05-13T00:29:15.317Z,13.00
2023-05-13T00:33:25.870Z,12.90
2023-05-13T00:37:35.091Z,12.90
2023-05-13T00:41:44.674Z,12.90
2023-05-13T00:45:55.988Z,12.90
2023-05-13T00:50:06.217Z,12.90
2023-05-13T00:54:15.511Z,12.90
2023-05-13T00:58:24.821Z,13.00
2023-05-13T01:02:42.078Z,12.90
2023-05-13T01:06:59.875Z,12.90
2023-05-13T01:11:15.553Z,12.90
2023-05-13T01:15:32.393Z,12.90
2023-05-13T01:19:46.432Z,12.90
2023-05-13T01:23:57.790Z,12.90
2023-05-13T01:28:08.317Z,12.90
2023-05-13T01:32:18.757Z,12.90
2023-05-13T01:36:28.311Z,12.90
2023-05-13T01:40:40.390Z,13.00
2023-05-13T01:44:49.910Z,13.00
2023-05-13T01:48:59.350Z,13.00
2023-05-13T01:53:09.180Z,13.10
2023-05-13T01:57:20.418Z,13.10
2023-05-13T02:01:29.996Z,13.10
2023-05-13T02:05:39.624Z,13.10
2023-05-13T02:09:49.270Z,13.10
2023-05-13T02:14:00.345Z,13.10
2023-05-13T02:18:09.799Z,13.10
2023-05-13T02:22:19.302Z,13.20
2023-05-13T02:26:28.883Z,13.10
2023-05-13T02:30:39.811Z,13.10
2023-05-13T02:34:49.377Z,13.10
2023-05-13T02:38:59.251Z,13.00
2023-05-13T02:43:08.614Z,13.00
2023-05-13T02:47:19.598Z,13.00
2023-05-13T02:51:29.055Z,13.00
2023-05-13T02:55:38.688Z,13.10
2023-05-13T02:59:48.018Z,13.10
2023-05-13T03:03:59.112Z,13.10
2023-05-13T03:08:08.588Z,13.10
2023-05-13T03:12:18.450Z,13.10
2023-05-13T03:16:27.760Z,13.10
2023-05-13T03:20:39.041Z,13.10
2023-05-13T03:24:49.278Z,13.10
2023-05-13T03:28:58.547Z,13.10
2023-05-13T03:33:07.918Z,13.10
2023-05-13T03:37:19.625Z,13.10
2023-05-13T03:41:29.429Z,13.10
2023-05-13T03:45:38.632Z,13.20
2023-05-13T03:49:49.333Z,13.10
2023-05-13T03:54:00.518Z,13.10
2023-05-13T03:58:19.458Z,13.10
2023-05-13T04:02:29.148Z,13.10
2023-05-13T04:06:38.505Z,13.10
2023-05-13T04:10:49.427Z,13.10
2023-05-13T04:14:58.829Z,13.20
2023-05-13T04:19:08.369Z,13.20
2023-05-13T04:23:18.055Z,13.10
2023-05-13T04:27:28.916Z,13.10
2023-05-13T04:31:38.268Z,13.10
2023-05-13T04:35:47.507Z,13.00
2023-05-13T04:39:56.744Z,13.10
2023-05-13T04:44:07.958Z,13.10
2023-05-13T04:48:17.308Z,13.00
2023-05-13T04:52:26.569Z,13.10
2023-05-13T04:56:36.112Z,13.00
2023-05-13T05:00:47.179Z,13.00
2023-05-13T05:04:56.427Z,13.00
2023-05-13T05:09:05.937Z,13.00
2023-05-13T05:13:15.233Z,12.90
2023-05-13T05:17:28.228Z,12.90
2023-05-13T05:21:37.637Z,13.00
2023-05-13T05:25:47.043Z,13.10
2023-05-13T05:29:56.934Z,13.10
2023-05-13T05:34:07.873Z,13.10
2023-05-13T05:38:18.843Z,13.10
2023-05-13T05:42:28.086Z,13.10
2023-05-13T05:46:37.461Z,13.10
2023-05-13T05:50:49.303Z,13.10
2023-05-13T05:54:58.650Z,13.10
2023-05-13T05:59:07.987Z,13.10
2023-05-13T06:03:17.669Z,13.20
2023-05-13T06:07:28.647Z,13.20
2023-05-13T06:11:38.064Z,13.20
2023-05-13T06:15:47.304Z,13.20
2023-05-13T06:19:56.540Z,13.20
2023-05-13T06:24:07.627Z,13.20
2023-05-13T06:28:16.869Z,13.20
2023-05-13T06:32:26.180Z,13.20
2023-05-13T06:36:35.605Z,13.30
2023-05-13T06:40:46.573Z,13.30
2023-05-13T06:44:56.078Z,13.30
2023-05-13T06:49:05.366Z,13.30
2023-05-13T06:53:14.594Z,13.30
2023-05-13T06:57:32.301Z,13.30
2023-05-13T07:01:48.240Z,13.40
2023-05-13T07:06:00.022Z,13.40
2023-05-13T07:10:13.621Z,13.40
2023-05-13T07:14:44.669Z,13.40
2023-05-13T07:18:54.585Z,13.40
2023-05-13T07:23:03.879Z,13.50
2023-05-13T07:27:12.979Z,13.50
2023-05-13T07:31:24.881Z,13.50
2023-05-13T07:35:34.379Z,13.50
2023-05-13T07:39:43.506Z,13.60
2023-05-13T07:43:53.825Z,13.60
2023-05-13T07:48:04.693Z,13.50
2023-05-13T07:56:44.524Z,13.80
2023-05-13T08:00:53.962Z,13.90
2023-05-13T08:05:07.485Z,14.00
2023-05-13T08:09:25.200Z,13.90
2023-05-13T08:13:34.476Z,13.80
2023-05-13T08:17:43.857Z,13.80
2023-05-13T08:21:54.821Z,13.70
2023-05-13T08:26:04.181Z,13.70
2023-05-13T08:30:14.527Z,13.90
2023-05-13T08:34:23.909Z,14.10
2023-05-13T08:38:35.077Z,14.10
2023-05-13T08:47:18.696Z,14.30
2023-05-13T08:51:28.572Z,14.30
2023-05-13T08:55:41.851Z,14.30
2023-05-13T08:59:51.793Z,14.30
2023-05-13T09:04:03.992Z,14.40
2023-05-13T09:08:13.661Z,14.60
2023-05-13T09:12:49.746Z,14.50
2023-05-13T09:16:59.588Z,14.40
2023-05-13T09:21:25.510Z,14.50
2023-05-13T09:25:35.582Z,14.80
2023-05-13T09:29:46.400Z,15.00
2023-05-13T09:33:55.632Z,15.00
2023-05-13T09:38:15.293Z,15.00
2023-05-13T09:42:25.279Z,15.00
2023-05-13T09:46:36.162Z,14.90
2023-05-13T09:50:53.043Z,14.90
2023-05-13T09:55:05.049Z,15.10
2023-05-13T09:59:23.493Z,15.10
2023-05-13T10:03:34.955Z,15.20
2023-05-13T10:07:44.860Z,15.30
2023-05-13T10:11:54.813Z,15.50
2023-05-13T10:16:04.546Z,15.40
2023-05-13T10:20:16.101Z,15.30
2023-05-13T10:24:27.731Z,15.60
2023-05-13T10:28:37.815Z,15.60
2023-05-13T10:32:47.821Z,15.60
2023-05-13T10:37:22.090Z,15.60
2023-05-13T10:42:08.141Z,15.50
2023-05-13T10:46:18.633Z,15.70
2023-05-13T10:50:33.774Z,15.80
2023-05-13T10:54:45.533Z,15.90
2023-05-13T10:59:04.574Z,15.90
2023-05-13T11:03:43.032Z,16.00
2023-05-13T11:08:03.966Z,16.20
2023-05-13T11:12:17.817Z,15.90
2023-05-13T11:16:29.761Z,16.00
2023-05-13T11:20:51.665Z,16.00
2023-05-13T11:25:15.732Z,16.10
2023-05-13T11:29:44.512Z,16.40
2023-05-13T11:34:21.761Z,16.80
2023-05-13T11:38:34.925Z,16.70
2023-05-13T11:42:46.774Z,16.60
2023-05-13T11:46:59.919Z,16.40
2023-05-13T11:55:48.379Z,16.70
2023-05-13T12:00:21.697Z,17.10
2023-05-13T12:09:59.447Z,18.10
2023-05-13T12:14:09.471Z,17.80
2023-05-13T12:18:26.621Z,17.20
2023-05-13T12:22:36.409Z,17.20
2023-05-13T12:27:05.277Z,17.10
2023-05-13T12:36:47.703Z,17.70
2023-05-13T12:40:57.807Z,18.20
2023-05-13T12:45:09.884Z,18.20
2023-05-13T12:49:19.275Z,18.10
2023-05-13T12:53:28.744Z,18.30
2023-05-13T12:57:37.896Z,18.40
2023-05-13T13:02:14.053Z,18.50
2023-05-13T13:20:28.706Z,18.50
2023-05-13T13:24:38.072Z,18.10
2023-05-13T13:29:06.229Z,17.80
2023-05-13T13:33:37.372Z,17.90
2023-05-13T13:37:50.903Z,18.20
2023-05-13T13:42:00.067Z,18.60
2023-05-13T13:46:09.462Z,18.50
2023-05-13T13:50:19.229Z,18.50
2023-05-13T13:54:30.405Z,18.60
2023-05-13T13:58:40.933Z,18.50
2023-05-13T14:02:51.433Z,18.40
2023-05-13T14:07:04.468Z,18.30
2023-05-13T14:11:22.862Z,18.40
2023-05-13T14:15:45.845Z,18.50
2023-05-13T14:19:55.875Z,18.60
2023-05-13T14:33:29.293Z,18.60
2023-05-13T14:37:51.114Z,18.70
2023-05-13T14:42:04.207Z,18.70
2023-05-13T14:46:24.777Z,18.40
2023-05-13T14:50:38.054Z,18.20
2023-05-13T14:54:49.895Z,18.10
2023-05-13T14:59:16.745Z,17.90
2023-05-13T15:08:15.452Z,18.20
2023-05-13T15:12:24.660Z,18.00
2023-05-13T15:16:33.845Z,18.10
2023-05-13T15:20:43.353Z,18.40
2023-05-13T15:24:54.136Z,18.50
2023-05-13T15:29:03.166Z,18.60
2023-05-13T15:33:12.339Z,18.70
2023-05-13T15:37:21.585Z,18.80
2023-05-13T15:41:32.175Z,18.70
2023-05-13T15:45:41.391Z,18.60
2023-05-13T15:49:51.606Z,18.70
2023-05-13T15:54:01.243Z,18.80
2023-05-13T16:02:52.291Z,18.80
2023-05-13T16:07:01.670Z,18.70
2023-05-13T16:11:21.336Z,18.60
2023-05-13T16:16:18.885Z,18.80
2023-05-13T16:20:29.783Z,18.90
2023-05-13T16:24:39.213Z,18.90
2023-05-13T16:28:48.388Z,18.90
2023-05-13T16:32:57.626Z,18.70
2023-05-13T16:37:08.389Z,18.50
2023-05-13T16:41:19.264Z,18.40
2023-05-13T16:45:28.447Z,18.30
2023-05-13T16:49:37.923Z,18.40
2023-05-13T16:53:48.566Z,18.50
2023-05-13T16:57:57.776Z,18.50
2023-05-13T17:02:07.782Z,18.40
2023-05-13T17:06:16.976Z,18.40
2023-05-13T17:10:27.733Z,18.40
2023-05-13T17:14:36.893Z,18.30
2023-05-13T17:18:46.213Z,18.30
2023-05-13T17:22:56.537Z,18.20
2023-05-13T17:27:07.640Z,18.20
2023-05-13T17:31:16.871Z,18.10
2023-05-13T17:35:26.201Z,18.10
2023-05-13T17:39:35.468Z,18.00
2023-05-13T17:43:46.244Z,17.90
2023-05-13T17:47:55.468Z,17.90
2023-05-13T17:52:04.746Z,17.90
2023-05-13T17:56:13.935Z,17.80
2023-05-13T18:00:25.398Z,17.80
2023-05-13T18:04:34.600Z,17.80
2023-05-13T18:08:43.709Z,17.70
2023-05-13T18:12:53.278Z,17.60
2023-05-13T18:17:03.947Z,17.60
2023-05-13T18:21:13.066Z,17.60
2023-05-13T18:25:22.167Z,17.50
2023-05-13T18:29:31.506Z,17.30
2023-05-13T18:33:42.112Z,17.20
2023-05-13T18:37:51.629Z,17.00
2023-05-13T18:42:00.714Z,17.00
2023-05-13T18:46:09.992Z,16.90
2023-05-13T18:50:21.155Z,16.90
2023-05-13T18:54:30.589Z,16.70
2023-05-13T18:58:39.726Z,16.60
2023-05-13T19:02:48.924Z,16.40
2023-05-13T19:07:00.377Z,16.20
2023-05-13T19:11:09.694Z,16.20
2023-05-13T19:15:21.389Z,16.10
2023-05-13T19:19:30.666Z,16.10
2023-05-13T19:23:41.361Z,15.90
2023-05-13T19:27:50.878Z,15.80
2023-05-13T19:31:59.978Z,15.60
2023-05-13T19:36:10.386Z,15.60
2023-05-13T19:40:21.360Z,15.50
2023-05-13T19:44:32.179Z,15.40
2023-05-13T19:48:41.337Z,15.20
2023-05-13T19:52:50.523Z,15.10
2023-05-13T19:57:01.185Z,15.10
2023-05-13T20:01:12.146Z,15.00
2023-05-13T20:05:21.379Z,14.90
2023-05-13T20:09:30.525Z,14.80
2023-05-13T20:13:41.003Z,14.70
2023-05-13T20:17:50.329Z,14.60
2023-05-13T20:21:59.411Z,14.50
2023-05-13T20:26:08.618Z,14.40
2023-05-13T20:30:21.272Z,14.20
2023-05-13T20:34:30.923Z,14.20
2023-05-13T20:38:39.960Z,14.10
2023-05-13T20:42:49.487Z,13.90
2023-05-13T20:47:00.137Z,13.90
2023-05-13T20:51:09.203Z,13.80
2023-05-13T20:55:18.357Z,13.70
2023-05-13T20:59:27.418Z,13.60
2023-05-13T21:03:38.093Z,13.60
2023-05-13T21:07:47.238Z,13.60
2023-05-13T21:11:56.208Z,13.50
2023-05-13T21:16:06.004Z,13.30
2023-05-13T21:20:16.868Z,13.10
2023-05-13T21:24:25.978Z,12.90
2023-05-13T21:28:35.097Z,12.80
2023-05-13T21:32:44.257Z,12.80
2023-05-13T21:36:54.891Z,12.80
2023-05-13T21:41:03.991Z,12.80
2023-05-13T21:45:15.244Z,12.80
2023-05-13T21:49:24.273Z,12.80
2023-05-13T21:53:35.225Z,12.90
2023-05-13T21:57:44.539Z,12.90
2023-05-13T22:01:53.615Z,12.80
2023-05-13T22:06:02.730Z,12.60
2023-05-13T22:10:13.985Z,12.40
2023-05-13T22:14:23.095Z,12.50
2023-05-13T22:18:32.424Z,12.60
2023-05-13T22:22:41.650Z,12.60
2023-05-13T22:26:52.108Z,12.50
2023-05-13T22:31:01.936Z,12.30
2023-05-13T22:35:11.757Z,12.00
2023-05-13T22:39:20.878Z,12.00
2023-05-13T22:43:31.498Z,12.00
2023-05-13T22:47:40.669Z,12.10
2023-05-13T22:51:50.012Z,12.00
2023-05-13T22:55:59.195Z,12.00
2023-05-13T23:00:11.156Z,11.80
2023-05-13T23:04:20.355Z,11.60
2023-05-13T23:08:29.476Z,11.60
2023-05-13T23:12:38.667Z,11.60
2023-05-13T23:16:49.173Z,11.60
2023-05-13T23:20:58.419Z,11.70
2023-05-13T23:25:08.448Z,11.70
2023-05-13T23:29:17.534Z,11.60
2023-05-13T23:33:28.173Z,11.60
2023-05-13T23:37:37.879Z,11.50
2023-05-13T23:41:46.938Z,11.50
2023-05-13T23:45:56.332Z,11.50
2023-05-13T23:50:08.378Z,11.30
2023-05-13T23:54:17.469Z,11.10
2023-05-13T23:58:26.487Z,11.00
